Time;durP1;ratioP1;P1;durP2;ratioP2;P2;SDS_P1;SDS_P2;PMS_P1;PMS_P2;Temp;Humidity;BMP_temperature;BMP_pressure;BME280_temperature;BME280_humidity;BME280_pressure;Samples;Min_cycle;Max_cycle;Signal;HPM_P1;HPM_P2
2023/08/28 00:02:11;;;;;;;1.13;0.80;;;;;;;;;;5055473;28;20025;-78
2023/08/28 00:04:37;;;;;;;0.98;0.70;;;;;;;;;;5054860;28;20032;-77
2023/08/28 00:07:02;;;;;;;1.15;0.93;;;;;;;;;;5055595;28;20524;-77
2023/08/28 00:09:27;;;;;;;1.38;0.90;;;;;;;;;;5054776;28;20044;-77
2023/08/28 00:11:57;;;;;;;14.68;1.17;;;;;;;;;;5055963;28;20431;-77
2023/08/28 00:14:23;;;;;;;1.17;1.10;;;;;;;;;;5054503;28;20043;-77
2023/08/28 00:16:49;;;;;;;0.70;0.70;;;;;;;;;;5054542;28;20025;-77
2023/08/28 00:19:15;;;;;;;0.90;0.90;;;;;;;;;;5054374;28;20539;-77
2023/08/28 00:21:40;;;;;;;0.95;0.95;;;;;;;;;;5054272;28;20040;-77
2023/08/28 00:24:06;;;;;;;2.80;1.00;;;;;;;;;;5054332;28;20039;-77
2023/08/28 00:26:31;;;;;;;2.50;0.90;;;;;;;;;;5037663;28;20072;-77
2023/08/28 00:28:57;;;;;;;0.77;0.77;;;;;;;;;;5037472;28;20036;-78
2023/08/28 00:31:22;;;;;;;1.50;1.10;;;;;;;;;;5054052;28;20036;-78
2023/08/28 00:33:48;;;;;;;0.77;0.77;;;;;;;;;;5037355;28;20032;-78
2023/08/28 00:36:13;;;;;;;1.00;0.90;;;;;;;;;;5054072;28;20082;-78
2023/08/28 00:38:39;;;;;;;0.80;0.80;;;;;;;;;;5038287;28;20098;-78
2023/08/28 00:41:04;;;;;;;0.70;0.68;;;;;;;;;;5054342;28;20119;-78
2023/08/28 00:43:29;;;;;;;0.98;0.80;;;;;;;;;;5055247;28;20033;-78
2023/08/28 00:45:55;;;;;;;0.70;0.70;;;;;;;;;;5055419;28;20471;-78
2023/08/28 00:48:21;;;;;;;1.75;1.00;;;;;;;;;;5053991;28;20032;-77
2023/08/28 00:50:48;;;;;;;0.98;0.70;;;;;;;;;;5055637;28;20032;-78
2023/08/28 00:53:13;;;;;;;1.77;0.85;;;;;;;;;;5054074;28;20122;-77
2023/08/28 00:55:40;;;;;;;1.27;0.90;;;;;;;;;;5053653;28;20028;-77
2023/08/28 00:58:05;;;;;;;1.00;0.95;;;;;;;;;;5053633;28;20029;-78
2023/08/28 01:00:31;;;;;;;0.80;0.70;;;;;;;;;;5053648;28;20495;-78
2023/08/28 01:02:57;;;;;;;0.93;0.68;;;;;;;;;;5053491;28;20503;-78
2023/08/28 01:05:39;;;;;;;1.40;0.80;;;;;;;;;;5053594;28;20021;-78
2023/08/28 01:08:16;;;;;;;0.80;0.80;;;;;;;;;;5054753;28;20470;-77
2023/08/28 01:10:49;;;;;;;0.57;0.57;;;;;;;;;;5054913;28;20032;-77
2023/08/28 01:13:22;;;;;;;1.10;0.88;;;;;;;;;;5052378;28;20028;-77
2023/08/28 01:15:49;;;;;;;0.65;0.65;;;;;;;;;;5054812;28;20383;-77
2023/08/28 01:18:14;;;;;;;1.48;0.70;;;;;;;;;;5036535;28;20040;-77
2023/08/28 01:20:40;;;;;;;0.70;0.70;;;;;;;;;;5053247;28;20127;-77
2023/08/28 01:23:14;;;;;;;0.93;0.70;;;;;;;;;;5053250;28;20033;-77
2023/08/28 01:25:40;;;;;;;0.60;0.60;;;;;;;;;;5036424;28;20021;-77
2023/08/28 01:28:05;;;;;;;0.70;0.70;;;;;;;;;;5054361;28;20041;-77
2023/08/28 01:30:31;;;;;;;0.80;0.80;;;;;;;;;;5053054;28;20392;-77
2023/08/28 01:32:57;;;;;;;0.88;0.88;;;;;;;;;;5054120;28;20029;-77
2023/08/28 01:35:27;;;;;;;1.65;1.13;;;;;;;;;;5052950;28;20108;-77
2023/08/28 01:38:07;;;;;;;1.42;0.85;;;;;;;;;;5036209;28;20423;-77
2023/08/28 01:40:45;;;;;;;2.90;0.80;;;;;;;;;;5054615;28;20391;-77
2023/08/28 01:43:19;;;;;;;1.75;0.90;;;;;;;;;;5052715;28;20082;-77
2023/08/28 01:45:44;;;;;;;1.50;0.77;;;;;;;;;;5052669;28;20029;-77
2023/08/28 01:48:10;;;;;;;0.80;0.80;;;;;;;;;;5052910;28;20438;-77
2023/08/28 01:50:35;;;;;;;0.80;0.60;;;;;;;;;;5052919;28;20044;-77
2023/08/28 01:53:00;;;;;;;1.05;0.85;;;;;;;;;;5052679;28;20039;-78
2023/08/28 01:55:44;;;;;;;2.47;0.77;;;;;;;;;;5053660;28;20028;-78
2023/08/28 01:58:09;;;;;;;1.48;0.77;;;;;;;;;;5053902;28;20039;-78
2023/08/28 02:00:35;;;;;;;0.75;0.75;;;;;;;;;;5052814;28;20033;-78
2023/08/28 02:03:00;;;;;;;1.58;0.75;;;;;;;;;;5053723;28;20150;-77
2023/08/28 02:05:26;;;;;;;1.00;0.90;;;;;;;;;;5052677;28;20036;-77
2023/08/28 02:07:51;;;;;;;0.80;0.68;;;;;;;;;;5053286;28;20045;-77
2023/08/28 02:10:17;;;;;;;0.98;0.88;;;;;;;;;;5053807;28;20048;-78
2023/08/28 02:12:42;;;;;;;1.50;0.85;;;;;;;;;;5053514;28;20476;-78
2023/08/28 02:15:08;;;;;;;0.60;0.60;;;;;;;;;;5035572;28;20047;-77
2023/08/28 02:17:33;;;;;;;0.80;0.80;;;;;;;;;;5053831;28;20025;-77
2023/08/28 02:19:59;;;;;;;0.75;0.70;;;;;;;;;;5052168;28;20041;-77
2023/08/28 02:22:24;;;;;;;0.70;0.70;;;;;;;;;;5053892;28;20036;-78
2023/08/28 02:24:49;;;;;;;0.70;0.70;;;;;;;;;;5051779;28;20032;-77
2023/08/28 02:27:15;;;;;;;0.80;0.80;;;;;;;;;;5052574;28;20025;-78
2023/08/28 02:29:40;;;;;;;1.08;0.75;;;;;;;;;;5053556;28;20037;-77
2023/08/28 02:32:05;;;;;;;0.80;0.80;;;;;;;;;;5053185;28;20037;-77
2023/08/28 02:34:31;;;;;;;0.52;0.52;;;;;;;;;;5051913;28;20037;-77
2023/08/28 02:36:57;;;;;;;1.10;0.65;;;;;;;;;;5051956;28;20126;-77
2023/08/28 02:39:22;;;;;;;0.90;0.90;;;;;;;;;;5053354;28;20032;-77
2023/08/28 02:41:48;;;;;;;0.60;0.60;;;;;;;;;;5035352;28;20086;-77
2023/08/28 02:44:13;;;;;;;0.75;0.55;;;;;;;;;;5051846;28;20033;-78
2023/08/28 02:46:38;;;;;;;1.05;0.65;;;;;;;;;;5053248;28;20040;-78
2023/08/28 02:49:04;;;;;;;1.00;0.70;;;;;;;;;;5053347;28;20376;-77
2023/08/28 02:51:29;;;;;;;1.75;0.60;;;;;;;;;;5051832;28;20037;-77
2023/08/28 02:53:54;;;;;;;1.00;0.85;;;;;;;;;;5051713;28;20128;-77
2023/08/28 02:56:20;;;;;;;0.70;0.70;;;;;;;;;;5053063;28;20032;-77
2023/08/28 02:58:45;;;;;;;0.88;0.70;;;;;;;;;;5053029;28;20051;-77
2023/08/28 03:01:11;;;;;;;0.77;0.70;;;;;;;;;;5053208;28;20517;-77
2023/08/28 03:03:36;;;;;;;0.82;0.80;;;;;;;;;;5053193;28;20032;-77
2023/08/28 03:06:01;;;;;;;0.60;0.60;;;;;;;;;;5051425;28;20094;-77
2023/08/28 03:08:28;;;;;;;0.60;0.60;;;;;;;;;;5051697;28;20037;-77
2023/08/28 03:10:54;;;;;;;3.97;0.75;;;;;;;;;;5052876;28;20488;-77
2023/08/28 03:13:19;;;;;;;3.88;0.80;;;;;;;;;;5052825;28;20021;-77
2023/08/28 03:15:44;;;;;;;0.60;0.60;;;;;;;;;;5051832;28;20476;-77
2023/08/28 03:18:10;;;;;;;0.70;0.70;;;;;;;;;;5051509;28;20392;-77
2023/08/28 03:20:36;;;;;;;0.93;0.80;;;;;;;;;;5051471;28;20032;-77
2023/08/28 03:23:02;;;;;;;0.50;0.50;;;;;;;;;;5051289;28;20112;-78
2023/08/28 03:25:28;;;;;;;0.80;0.70;;;;;;;;;;5052775;28;20028;-78
2023/08/28 03:27:53;;;;;;;0.70;0.70;;;;;;;;;;5052540;28;20106;-77
2023/08/28 03:30:19;;;;;;;2.00;0.77;;;;;;;;;;5034626;28;20056;-77
2023/08/28 03:32:44;;;;;;;1.02;0.80;;;;;;;;;;5052402;28;20063;-78
2023/08/28 03:35:10;;;;;;;0.50;0.50;;;;;;;;;;5051344;28;20460;-78
2023/08/28 03:37:35;;;;;;;0.80;0.80;;;;;;;;;;5038108;28;20025;-78
2023/08/28 03:40:01;;;;;;;3.50;1.23;;;;;;;;;;5056135;28;20117;-77
2023/08/28 03:42:26;;;;;;;0.80;0.80;;;;;;;;;;5056682;28;20037;-77
2023/08/28 03:44:51;;;;;;;1.00;0.77;;;;;;;;;;5056334;28;20067;-77
2023/08/28 03:47:17;;;;;;;1.20;0.80;;;;;;;;;;5054925;28;20029;-77
2023/08/28 03:49:42;;;;;;;2.05;0.70;;;;;;;;;;5054810;28;20040;-78
2023/08/28 03:52:07;;;;;;;0.90;0.60;;;;;;;;;;5054781;28;20029;-77
2023/08/28 03:54:33;;;;;;;0.82;0.73;;;;;;;;;;5055151;28;20040;-77
2023/08/28 03:56:58;;;;;;;1.20;0.77;;;;;;;;;;5056093;28;20021;-77
2023/08/28 03:59:23;;;;;;;1.75;0.70;;;;;;;;;;5054678;28;20045;-78
2023/08/28 04:01:50;;;;;;;0.80;0.70;;;;;;;;;;5055710;28;20025;-79
2023/08/28 04:04:16;;;;;;;1.23;0.75;;;;;;;;;;5054673;28;20057;-78
2023/08/28 04:06:42;;;;;;;3.72;0.80;;;;;;;;;;5054599;28;20131;-78
2023/08/28 04:09:07;;;;;;;1.95;1.13;;;;;;;;;;5055615;28;20059;-78
2023/08/28 04:11:32;;;;;;;1.70;0.90;;;;;;;;;;5054850;28;20388;-78
2023/08/28 04:13:58;;;;;;;0.85;0.73;;;;;;;;;;5054723;28;20028;-78
2023/08/28 04:16:23;;;;;;;0.70;0.70;;;;;;;;;;5038268;28;20441;-78
2023/08/28 04:18:49;;;;;;;0.82;0.77;;;;;;;;;;5055931;28;20314;-78
2023/08/28 04:21:14;;;;;;;1.55;0.90;;;;;;;;;;5037743;28;20056;-79
2023/08/28 04:23:40;;;;;;;2.83;1.13;;;;;;;;;;5054602;28;20377;-77
2023/08/28 04:26:05;;;;;;;1.30;1.00;;;;;;;;;;5055575;28;20025;-78
2023/08/28 04:28:31;;;;;;;6.57;1.58;;;;;;;;;;5055840;28;20032;-77
2023/08/28 04:30:56;;;;;;;2.83;1.10;;;;;;;;;;5054527;28;20032;-77
2023/08/28 04:33:23;;;;;;;2.83;1.13;;;;;;;;;;5054672;28;20510;-77
2023/08/28 04:35:49;;;;;;;2.92;1.20;;;;;;;;;;5053492;28;20479;-76
2023/08/28 04:38:14;;;;;;;3.85;1.30;;;;;;;;;;5054653;28;20037;-77
2023/08/28 04:40:39;;;;;;;4.07;1.40;;;;;;;;;;5036813;28;20040;-77
2023/08/28 04:43:05;;;;;;;2.95;1.27;;;;;;;;;;5036888;28;20585;-77
2023/08/28 04:45:30;;;;;;;3.35;1.45;;;;;;;;;;5053588;28;20033;-78
2023/08/28 04:47:56;;;;;;;1.60;1.17;;;;;;;;;;5054161;28;20036;-77
2023/08/28 04:50:21;;;;;;;7.47;1.27;;;;;;;;;;5053455;28;20035;-77
2023/08/28 04:52:46;;;;;;;2.38;1.25;;;;;;;;;;5037811;28;20033;-78
2023/08/28 04:55:12;;;;;;;3.47;1.40;;;;;;;;;;5054227;28;20132;-79
2023/08/28 04:57:37;;;;;;;2.17;1.20;;;;;;;;;;5055686;28;20032;-78
2023/08/28 05:00:03;;;;;;;4.10;1.40;;;;;;;;;;5037399;28;20027;-78
2023/08/28 05:02:28;;;;;;;4.50;1.63;;;;;;;;;;5053064;28;20052;-79
2023/08/28 05:04:54;;;;;;;12.30;3.00;;;;;;;;;;5052995;28;20037;-78
2023/08/28 05:07:21;;;;;;;26.13;4.97;;;;;;;;;;5052992;28;20045;-79
2023/08/28 05:09:47;;;;;;;27.30;6.43;;;;;;;;;;5036061;28;20032;-79
2023/08/28 05:12:14;;;;;;;31.33;8.25;;;;;;;;;;5054010;28;20086;-82
2023/08/28 05:14:40;;;;;;;31.88;6.88;;;;;;;;;;5036806;28;20058;-81
2023/08/28 05:17:06;;;;;;;22.55;6.60;;;;;;;;;;5053115;28;20120;-78
2023/08/28 05:19:31;;;;;;;27.08;6.43;;;;;;;;;;5053753;28;20503;-79
2023/08/28 05:21:57;;;;;;;15.95;6.13;;;;;;;;;;5052779;28;20032;-78
2023/08/28 05:24:22;;;;;;;19.38;5.22;;;;;;;;;;5036278;28;20119;-79
2023/08/28 05:26:47;;;;;;;21.15;5.22;;;;;;;;;;5036132;28;20037;-79
2023/08/28 05:29:13;;;;;;;19.60;5.00;;;;;;;;;;5053529;28;20025;-79
2023/08/28 05:31:41;;;;;;;23.73;4.75;;;;;;;;;;5053729;28;20369;-78
2023/08/28 05:34:07;;;;;;;15.43;4.47;;;;;;;;;;5056196;28;20121;-79
2023/08/28 05:36:32;;;;;;;14.10;4.60;;;;;;;;;;5052415;28;20107;-77
2023/08/28 05:38:58;;;;;;;12.45;3.47;;;;;;;;;;5052586;28;20036;-78
2023/08/28 05:41:23;;;;;;;11.70;3.60;;;;;;;;;;5053784;28;20099;-79
2023/08/28 05:43:48;;;;;;;12.65;3.53;;;;;;;;;;5052051;28;20131;-79
2023/08/28 05:46:14;;;;;;;12.23;3.05;;;;;;;;;;5052143;28;20040;-79
2023/08/28 05:48:39;;;;;;;9.57;3.05;;;;;;;;;;5052066;28;20480;-79
2023/08/28 05:51:05;;;;;;;9.25;3.05;;;;;;;;;;5035693;28;20024;-79
2023/08/28 05:53:30;;;;;;;6.15;2.63;;;;;;;;;;5053754;28;20507;-77
2023/08/28 05:55:56;;;;;;;6.55;2.30;;;;;;;;;;5052122;28;20044;-78
2023/08/28 05:58:21;;;;;;;7.10;2.55;;;;;;;;;;5051646;28;20033;-79
2023/08/28 06:00:47;;;;;;;5.30;2.28;;;;;;;;;;5053088;28;20029;-79
2023/08/28 06:03:12;;;;;;;4.85;2.20;;;;;;;;;;5053867;28;20074;-79
2023/08/28 06:05:38;;;;;;;4.72;2.17;;;;;;;;;;5052864;28;20482;-79
2023/08/28 06:08:04;;;;;;;5.80;2.38;;;;;;;;;;5052386;28;20056;-78
2023/08/28 06:10:29;;;;;;;3.35;2.22;;;;;;;;;;5052498;28;20087;-79
2023/08/28 06:12:55;;;;;;;3.70;2.08;;;;;;;;;;5053894;28;20032;-80
2023/08/28 06:15:20;;;;;;;5.78;1.73;;;;;;;;;;5053892;28;20021;-79
2023/08/28 06:17:46;;;;;;;3.03;2.20;;;;;;;;;;5052407;28;20086;-79
2023/08/28 06:20:12;;;;;;;3.65;1.70;;;;;;;;;;5053436;28;20036;-79
2023/08/28 06:22:38;;;;;;;5.82;1.73;;;;;;;;;;5035781;28;20091;-78
2023/08/28 06:25:04;;;;;;;5.22;2.05;;;;;;;;;;5052412;28;20390;-79
2023/08/28 06:27:30;;;;;;;6.20;2.50;;;;;;;;;;5052310;28;20025;-79
2023/08/28 06:29:55;;;;;;;2.75;2.15;;;;;;;;;;5052504;28;20476;-79
2023/08/28 06:32:21;;;;;;;5.95;1.88;;;;;;;;;;5053542;28;20029;-79
2023/08/28 06:34:46;;;;;;;2.38;1.73;;;;;;;;;;5053483;28;20153;-79
2023/08/28 06:37:12;;;;;;;4.07;1.63;;;;;;;;;;5052369;28;20082;-79
2023/08/28 06:39:37;;;;;;;5.07;2.20;;;;;;;;;;5052334;28;20039;-79
2023/08/28 06:42:03;;;;;;;5.28;1.83;;;;;;;;;;5051588;28;20029;-78
2023/08/28 06:44:28;;;;;;;4.05;2.10;;;;;;;;;;5053163;28;20104;-79
2023/08/28 06:46:54;;;;;;;4.00;1.70;;;;;;;;;;5034486;28;20116;-78
2023/08/28 06:49:20;;;;;;;3.55;1.85;;;;;;;;;;5051273;28;20032;-79
2023/08/28 06:51:46;;;;;;;3.78;2.05;;;;;;;;;;5035491;28;20396;-79
2023/08/28 06:54:11;;;;;;;4.75;1.73;;;;;;;;;;5052050;28;20068;-79
2023/08/28 06:56:37;;;;;;;3.30;1.65;;;;;;;;;;5053262;28;20021;-79
2023/08/28 06:59:03;;;;;;;2.58;1.40;;;;;;;;;;5052352;28;20064;-78
2023/08/28 07:01:28;;;;;;;4.10;1.90;;;;;;;;;;5052140;28;20082;-79
2023/08/28 07:03:53;;;;;;;3.35;1.30;;;;;;;;;;5053387;28;20044;-79
2023/08/28 07:06:19;;;;;;;3.72;1.48;;;;;;;;;;5053121;28;20049;-79
2023/08/28 07:08:45;;;;;;;7.18;1.80;;;;;;;;;;5052172;28;20174;-80
2023/08/28 07:11:10;;;;;;;2.58;1.30;;;;;;;;;;5053678;28;20033;-79
2023/08/28 07:13:36;;;;;;;2.60;1.52;;;;;;;;;;5055907;28;20036;-79
2023/08/28 07:16:02;;;;;;;2.20;1.40;;;;;;;;;;5055845;28;20041;-79
2023/08/28 07:18:28;;;;;;;4.40;1.70;;;;;;;;;;5057270;28;20056;-79
2023/08/28 07:20:54;;;;;;;3.33;1.55;;;;;;;;;;5055533;28;20033;-79
2023/08/28 07:23:22;;;;;;;3.25;1.40;;;;;;;;;;5038992;28;20369;-79
2023/08/28 07:25:47;;;;;;;4.63;1.70;;;;;;;;;;5055573;28;20561;-79
2023/08/28 07:28:13;;;;;;;2.92;1.52;;;;;;;;;;5056610;28;20112;-78
2023/08/28 07:30:40;;;;;;;2.45;1.10;;;;;;;;;;5038639;28;20395;-79
2023/08/28 07:33:05;;;;;;;5.45;1.30;;;;;;;;;;5055378;28;20031;-79
2023/08/28 07:35:35;;;;;;;4.10;1.42;;;;;;;;;;5056862;28;20544;-79
2023/08/28 07:38:07;;;;;;;1.27;1.17;;;;;;;;;;5055752;28;20441;-78
2023/08/28 07:40:32;;;;;;;5.47;1.02;;;;;;;;;;5055277;28;20040;-78
2023/08/28 07:42:59;;;;;;;4.10;1.13;;;;;;;;;;5055040;28;20033;-79
2023/08/28 07:45:25;;;;;;;3.17;1.13;;;;;;;;;;5055340;28;20036;-79
2023/08/28 07:47:50;;;;;;;2.53;1.10;;;;;;;;;;5055179;28;20033;-78
2023/08/28 07:50:16;;;;;;;3.47;1.23;;;;;;;;;;5056505;28;20039;-79
2023/08/28 07:52:41;;;;;;;1.75;1.17;;;;;;;;;;5055032;28;20372;-79
2023/08/28 07:55:07;;;;;;;3.03;1.05;;;;;;;;;;5021930;28;20040;-79
2023/08/28 07:57:34;;;;;;;1.90;0.80;;;;;;;;;;5038300;28;20032;-79
2023/08/28 08:00:00;;;;;;;1.77;1.25;;;;;;;;;;5056343;28;20127;-79
2023/08/28 08:02:25;;;;;;;1.08;0.80;;;;;;;;;;5056765;28;20475;-79
2023/08/28 08:04:51;;;;;;;2.65;1.00;;;;;;;;;;5057850;28;20449;-79
2023/08/28 08:07:16;;;;;;;1.73;1.00;;;;;;;;;;5056175;28;20052;-79
2023/08/28 08:09:41;;;;;;;4.95;1.20;;;;;;;;;;5057123;28;20430;-78
2023/08/28 08:12:07;;;;;;;1.25;0.80;;;;;;;;;;5055066;28;20021;-79
2023/08/28 08:14:32;;;;;;;1.58;0.80;;;;;;;;;;5056389;28;20087;-78
2023/08/28 08:16:58;;;;;;;2.00;0.98;;;;;;;;;;5054988;28;20029;-78
2023/08/28 08:19:23;;;;;;;2.42;1.10;;;;;;;;;;5054890;28;20400;-78
2023/08/28 08:21:48;;;;;;;3.28;1.05;;;;;;;;;;5054973;28;20039;-77
2023/08/28 08:24:14;;;;;;;1.13;1.00;;;;;;;;;;5067627;28;20033;-77
2023/08/28 08:26:39;;;;;;;1.85;0.88;;;;;;;;;;5062533;28;20064;-78
2023/08/28 08:29:04;;;;;;;1.98;0.95;;;;;;;;;;5055553;28;20029;-77
2023/08/28 08:31:30;;;;;;;2.13;1.23;;;;;;;;;;5055625;28;20025;-78
2023/08/28 08:33:55;;;;;;;1.05;0.93;;;;;;;;;;5054423;28;20025;-78
2023/08/28 08:36:21;;;;;;;1.73;0.73;;;;;;;;;;5055887;28;20029;-79
2023/08/28 08:38:46;;;;;;;0.80;0.80;;;;;;;;;;5037559;28;20036;-77
2023/08/28 08:41:11;;;;;;;2.15;0.85;;;;;;;;;;5054322;28;20025;-77
2023/08/28 08:43:37;;;;;;;1.77;0.98;;;;;;;;;;5055325;28;20035;-77
2023/08/28 08:46:08;;;;;;;1.02;0.90;;;;;;;;;;5055141;28;20029;-77
2023/08/28 08:48:36;;;;;;;2.40;0.90;;;;;;;;;;5037321;28;20025;-77
2023/08/28 08:51:06;;;;;;;3.65;0.95;;;;;;;;;;5056745;28;20483;-77
2023/08/28 08:53:55;;;;;;;0.80;0.70;;;;;;;;;;5053967;28;20029;-77
2023/08/28 08:56:23;;;;;;;1.17;0.75;;;;;;;;;;5053801;28;20044;-78
2023/08/28 08:58:49;;;;;;;1.25;0.70;;;;;;;;;;5053589;28;20099;-79
2023/08/28 09:01:15;;;;;;;1.30;0.80;;;;;;;;;;5053830;28;20033;-79
2023/08/28 09:03:41;;;;;;;1.40;0.80;;;;;;;;;;5053632;28;20021;-80
2023/08/28 09:06:07;;;;;;;1.90;0.70;;;;;;;;;;5053613;28;20084;-79
2023/08/28 09:08:37;;;;;;;1.38;0.90;;;;;;;;;;5053149;28;20049;-77
2023/08/28 09:11:04;;;;;;;1.40;0.98;;;;;;;;;;5053620;28;20121;-79
2023/08/28 09:13:30;;;;;;;2.67;1.17;;;;;;;;;;5053566;28;20075;-79
2023/08/28 09:15:56;;;;;;;1.58;0.95;;;;;;;;;;5054657;28;20116;-79
2023/08/28 09:18:21;;;;;;;0.77;0.77;;;;;;;;;;5053136;28;20116;-79
2023/08/28 09:21:09;;;;;;;0.68;0.68;;;;;;;;;;5054429;28;20039;-79
2023/08/28 09:23:41;;;;;;;1.27;0.77;;;;;;;;;;5044636;28;20044;-79
2023/08/28 09:26:06;;;;;;;1.65;0.95;;;;;;;;;;5054715;28;20052;-79
2023/08/28 09:28:31;;;;;;;1.10;0.90;;;;;;;;;;5052837;28;20067;-79
2023/08/28 09:30:57;;;;;;;1.05;0.82;;;;;;;;;;5054680;28;20029;-79
2023/08/28 09:33:22;;;;;;;1.13;0.80;;;;;;;;;;5052168;28;20118;-79
2023/08/28 09:35:48;;;;;;;1.55;0.90;;;;;;;;;;5054245;28;20033;-79
2023/08/28 09:38:13;;;;;;;1.17;0.80;;;;;;;;;;5054027;28;20029;-79
2023/08/28 09:40:41;;;;;;;0.73;0.73;;;;;;;;;;5052735;28;20162;-79
2023/08/28 09:43:12;;;;;;;1.08;0.95;;;;;;;;;;5052653;28;20487;-79
2023/08/28 09:45:39;;;;;;;0.90;0.85;;;;;;;;;;5053990;28;20438;-79
2023/08/28 09:48:05;;;;;;;1.10;1.00;;;;;;;;;;5036085;28;20226;-79
2023/08/28 09:50:31;;;;;;;1.30;0.88;;;;;;;;;;5053793;28;20098;-79
2023/08/28 09:53:10;;;;;;;1.63;0.80;;;;;;;;;;5036152;28;20463;-79
2023/08/28 09:55:54;;;;;;;1.70;1.00;;;;;;;;;;5052655;28;20033;-79
2023/08/28 09:58:23;;;;;;;;;;;;;;;;;;5036216;28;20417;-77
2023/08/28 10:00:50;;;;;;;0.75;0.75;;;;;;;;;;5036067;28;19915;-79
2023/08/28 10:03:15;;;;;;;1.40;0.85;;;;;;;;;;5035884;28;20028;-79
2023/08/28 10:05:45;;;;;;;1.20;0.70;;;;;;;;;;5035850;28;20024;-79
2023/08/28 10:08:12;;;;;;;0.85;0.85;;;;;;;;;;5053430;28;20041;-79
2023/08/28 10:10:42;;;;;;;3.15;0.90;;;;;;;;;;5053465;28;20082;-79
2023/08/28 10:13:13;;;;;;;1.38;0.60;;;;;;;;;;5052700;28;20017;-79
2023/08/28 10:16:05;;;;;;;3.03;0.90;;;;;;;;;;5053757;28;20029;-79
2023/08/28 10:18:36;;;;;;;1.25;0.80;;;;;;;;;;5043572;28;20140;-79
2023/08/28 10:21:02;;;;;;;0.93;0.73;;;;;;;;;;5053436;28;20086;-79
2023/08/28 10:23:28;;;;;;;2.05;0.93;;;;;;;;;;5052607;28;20476;-79
2023/08/28 10:25:54;;;;;;;2.17;0.80;;;;;;;;;;5051985;28;20055;-79
2023/08/28 10:28:21;;;;;;;1.45;0.80;;;;;;;;;;5035441;28;20032;-78
2023/08/28 10:30:48;;;;;;;0.70;0.70;;;;;;;;;;5052294;28;20430;-79
2023/08/28 10:33:14;;;;;;;1.02;0.95;;;;;;;;;;5052075;28;20083;-79
2023/08/28 10:35:44;;;;;;;1.70;0.75;;;;;;;;;;5035419;28;20029;-79
2023/08/28 10:38:11;;;;;;;1.58;0.88;;;;;;;;;;5052292;28;20025;-79
2023/08/28 10:40:36;;;;;;;1.02;0.57;;;;;;;;;;5035754;28;20425;-79
2023/08/28 10:43:02;;;;;;;1.17;0.85;;;;;;;;;;5051883;28;20068;-78
2023/08/28 10:45:28;;;;;;;4.90;1.25;;;;;;;;;;5054009;28;20071;-79
2023/08/28 10:47:53;;;;;;;7.43;2.03;;;;;;;;;;5053307;28;20064;-78
2023/08/28 10:50:19;;;;;;;4.22;1.50;;;;;;;;;;5053058;28;20029;-78
2023/08/28 10:52:46;;;;;;;2.72;1.55;;;;;;;;;;5053184;28;20047;-79
2023/08/28 10:55:17;;;;;;;3.80;1.60;;;;;;;;;;5051841;28;20036;-78
2023/08/28 10:57:48;;;;;;;5.45;1.90;;;;;;;;;;5053006;28;20025;-78
2023/08/28 11:00:15;;;;;;;5.40;1.70;;;;;;;;;;5053279;28;20025;-79
2023/08/28 11:03:05;;;;;;;4.97;1.55;;;;;;;;;;5051891;28;20025;-79
2023/08/28 11:05:31;;;;;;;6.18;1.65;;;;;;;;;;5052049;28;20401;-78
2023/08/28 11:07:57;;;;;;;2.20;1.10;;;;;;;;;;5034857;28;20045;-79
2023/08/28 11:10:25;;;;;;;5.68;2.00;;;;;;;;;;5051666;28;20055;-79
2023/08/28 11:12:53;;;;;;;6.80;1.80;;;;;;;;;;5052099;28;20442;-79
2023/08/28 11:15:32;;;;;;;4.80;1.50;;;;;;;;;;5052063;28;20025;-78
2023/08/28 11:18:29;;;;;;;2.55;1.48;;;;;;;;;;5051729;28;20037;-79
2023/08/28 11:21:00;;;;;;;2.65;1.30;;;;;;;;;;5051793;28;20035;-79
2023/08/28 11:23:34;;;;;;;3.10;1.48;;;;;;;;;;5035719;28;20024;-79
2023/08/28 11:26:03;;;;;;;5.35;1.50;;;;;;;;;;5035427;28;20025;-79
2023/08/28 11:28:32;;;;;;;2.20;1.20;;;;;;;;;;5051545;28;20120;-79
2023/08/28 11:30:59;;;;;;;7.60;1.50;;;;;;;;;;5035188;28;20334;-79
2023/08/28 11:33:24;;;;;;;7.57;1.50;;;;;;;;;;5052774;28;20033;-79
2023/08/28 11:35:50;;;;;;;7.05;1.70;;;;;;;;;;5053166;28;20499;-78
2023/08/28 11:38:16;;;;;;;4.70;1.73;;;;;;;;;;5034846;28;20112;-78
2023/08/28 11:40:41;;;;;;;5.10;1.90;;;;;;;;;;5049888;28;20025;-78
2023/08/28 11:43:08;;;;;;;5.20;1.83;;;;;;;;;;5051377;28;20021;-78
2023/08/28 11:45:34;;;;;;;7.88;1.30;;;;;;;;;;5051739;28;20035;-79
2023/08/28 11:48:00;;;;;;;2.92;1.27;;;;;;;;;;5051135;28;20056;-78
2023/08/28 11:50:26;;;;;;;3.17;1.55;;;;;;;;;;5034698;28;20055;-78
2023/08/28 11:52:52;;;;;;;5.57;1.27;;;;;;;;;;5052332;28;20450;-78
2023/08/28 11:55:19;;;;;;;4.78;1.55;;;;;;;;;;5051183;28;20041;-78
2023/08/28 11:57:45;;;;;;;5.80;1.50;;;;;;;;;;5053100;28;20044;-78
2023/08/28 12:00:14;;;;;;;5.45;1.52;;;;;;;;;;5054746;28;20095;-78
2023/08/28 12:02:42;;;;;;;4.55;1.50;;;;;;;;;;5038673;28;20498;-78
2023/08/28 12:05:08;;;;;;;2.58;1.38;;;;;;;;;;5054427;28;20098;-78
2023/08/28 12:07:33;;;;;;;1.52;0.95;;;;;;;;;;5054004;28;20053;-78
2023/08/28 12:09:59;;;;;;;3.30;1.20;;;;;;;;;;5055932;28;20040;-78
2023/08/28 12:12:26;;;;;;;1.52;0.90;;;;;;;;;;5055767;28;20476;-78
2023/08/28 12:14:52;;;;;;;0.70;0.70;;;;;;;;;;5054387;28;20507;-79
2023/08/28 12:17:22;;;;;;;1.40;0.90;;;;;;;;;;5037898;28;20120;-78
2023/08/28 12:19:49;;;;;;;1.52;0.90;;;;;;;;;;5037645;28;20467;-78
2023/08/28 12:22:15;;;;;;;1.52;0.82;;;;;;;;;;5037639;28;20071;-78
2023/08/28 12:24:47;;;;;;;0.85;0.70;;;;;;;;;;5055578;28;20118;-78
2023/08/28 12:27:14;;;;;;;2.50;1.25;;;;;;;;;;5054145;28;20431;-78
2023/08/28 12:29:43;;;;;;;1.10;0.80;;;;;;;;;;5055757;28;20028;-78
2023/08/28 12:32:15;;;;;;;3.15;1.10;;;;;;;;;;5054008;28;20113;-78
2023/08/28 12:34:42;;;;;;;1.08;0.65;;;;;;;;;;5037711;28;20063;-79
2023/08/28 12:37:09;;;;;;;2.72;0.85;;;;;;;;;;5054077;28;20475;-78
2023/08/28 12:39:35;;;;;;;1.70;0.80;;;;;;;;;;5054318;28;20506;-79
2023/08/28 12:42:01;;;;;;;1.85;0.70;;;;;;;;;;5054154;28;20025;-78
2023/08/28 12:44:27;;;;;;;1.27;0.82;;;;;;;;;;5053788;28;20025;-78
2023/08/28 12:46:53;;;;;;;0.77;0.75;;;;;;;;;;5033979;28;20084;-78
2023/08/28 12:49:19;;;;;;;0.95;0.70;;;;;;;;;;5033650;28;20484;-78
2023/08/28 12:51:45;;;;;;;3.58;0.65;;;;;;;;;;5053869;28;20086;-79
2023/08/28 12:54:19;;;;;;;4.50;1.10;;;;;;;;;;5053833;28;20037;-78
2023/08/28 12:56:44;;;;;;;3.95;0.90;;;;;;;;;;5054016;28;20033;-77
2023/08/28 12:59:09;;;;;;;0.55;0.55;;;;;;;;;;5054845;28;20440;-77
2023/08/28 13:01:35;;;;;;;1.17;0.52;;;;;;;;;;5017832;28;20370;-78
2023/08/28 13:04:01;;;;;;;1.13;0.55;;;;;;;;;;5034907;28;20108;-78
2023/08/28 13:06:26;;;;;;;0.50;0.50;;;;;;;;;;5049806;28;20051;-78
2023/08/28 13:08:51;;;;;;;1.23;0.80;;;;;;;;;;5051750;28;20167;-78
2023/08/28 13:11:17;;;;;;;2.08;0.90;;;;;;;;;;5053223;28;20037;-78
2023/08/28 13:13:43;;;;;;;2.08;0.60;;;;;;;;;;5053344;28;20021;-77
2023/08/28 13:16:09;;;;;;;0.60;0.60;;;;;;;;;;5054479;28;20544;-77
2023/08/28 13:18:35;;;;;;;0.47;0.45;;;;;;;;;;5054202;28;20407;-78
2023/08/28 13:21:00;;;;;;;0.95;0.50;;;;;;;;;;5054287;28;20037;-78
2023/08/28 13:23:25;;;;;;;2.97;1.42;;;;;;;;;;5036608;28;20043;-77
2023/08/28 13:25:51;;;;;;;0.60;0.60;;;;;;;;;;5054229;28;20045;-77
2023/08/28 13:28:17;;;;;;;0.55;0.55;;;;;;;;;;5053233;28;20028;-78
2023/08/28 13:30:44;;;;;;;2.85;0.63;;;;;;;;;;5053484;28;20037;-78
2023/08/28 13:33:09;;;;;;;2.22;0.85;;;;;;;;;;5059149;28;20040;-78
2023/08/28 13:35:36;;;;;;;0.82;0.60;;;;;;;;;;5056247;28;20546;-78
2023/08/28 13:38:04;;;;;;;2.28;0.80;;;;;;;;;;5056269;28;20024;-78
2023/08/28 13:40:30;;;;;;;0.70;0.50;;;;;;;;;;5073295;28;20161;-78
2023/08/28 13:42:55;;;;;;;3.22;0.85;;;;;;;;;;5056022;28;20065;-78
2023/08/28 13:45:21;;;;;;;0.57;0.50;;;;;;;;;;5056326;28;20107;-77
2023/08/28 13:47:46;;;;;;;2.10;0.93;;;;;;;;;;5055609;28;20562;-78
2023/08/28 13:50:12;;;;;;;3.25;0.70;;;;;;;;;;5074075;28;20502;-77
2023/08/28 13:52:38;;;;;;;5.13;0.80;;;;;;;;;;5074294;28;20099;-78
2023/08/28 13:55:06;;;;;;;1.02;0.55;;;;;;;;;;5074031;28;20028;-78
2023/08/28 13:57:32;;;;;;;3.47;0.70;;;;;;;;;;5073586;28;20525;-77
2023/08/28 13:59:59;;;;;;;0.47;0.47;;;;;;;;;;5073212;28;20032;-78
2023/08/28 14:02:28;;;;;;;1.42;0.80;;;;;;;;;;5074583;28;20434;-77
2023/08/28 14:04:53;;;;;;;2.58;0.80;;;;;;;;;;5073100;28;20078;-78
2023/08/28 14:07:20;;;;;;;1.17;0.60;;;;;;;;;;5072778;28;20045;-78
2023/08/28 14:09:46;;;;;;;1.23;0.60;;;;;;;;;;5056660;28;20054;-78
2023/08/28 14:12:11;;;;;;;0.40;0.40;;;;;;;;;;5073456;28;20546;-78
2023/08/28 14:14:36;;;;;;;0.50;0.50;;;;;;;;;;5073082;28;20032;-77
2023/08/28 14:17:02;;;;;;;1.02;0.90;;;;;;;;;;5074254;28;20069;-77
2023/08/28 14:19:28;;;;;;;1.00;0.60;;;;;;;;;;5072413;28;20028;-76
2023/08/28 14:21:53;;;;;;;0.45;0.45;;;;;;;;;;5074116;28;20424;-77
2023/08/28 14:24:19;;;;;;;2.17;0.90;;;;;;;;;;5073494;28;20119;-77
2023/08/28 14:26:44;;;;;;;0.82;0.70;;;;;;;;;;5076969;28;20457;-77
2023/08/28 14:29:10;;;;;;;2.15;0.77;;;;;;;;;;5056408;28;20038;-77
2023/08/28 14:31:36;;;;;;;1.70;0.65;;;;;;;;;;5072216;28;20059;-77
2023/08/28 14:34:02;;;;;;;0.55;0.55;;;;;;;;;;5073237;28;20036;-79
2023/08/28 14:36:27;;;;;;;0.77;0.55;;;;;;;;;;5072175;28;20025;-78
2023/08/28 14:38:53;;;;;;;0.60;0.60;;;;;;;;;;5075042;28;20032;-78
2023/08/28 14:41:19;;;;;;;2.13;0.70;;;;;;;;;;5055795;28;20068;-78